Airfield :
LOGIN :

Register | Disclaimer

   EN    FR    IT 

 










Legend :    VFR   Marginal VFR   IFR   Intensive IFR   Very Intensive IFR
Visi :
Ceiling :
>= 8 km
>= 3000ft
5 to 8 km
1000 to 3000 ft
1500m to 5 km
500 to 1000 ft
800 to 1500m
200 to 500 ft
< 800m
< 200 ft
Symbols :   Thunderstorms  Fog  Heavy snow  Heavy precipitations  Wind > 20 kt
SIGMETs :     Misc.  Thunderstorms  Icing  Turbulence  Mountain Waves  Volcanic Ashes







- Airport Elevation : 194 ft
- IATA code : ANE
- Download approach charts


LFJR - Angers Marcé

CURRENT METAR :
  • 112030Z AUTO 11007KT 7000 OVC005 04/04 Q1023

EXPIRED METARs :
  • 112000Z AUTO 11006KT 080V140 8000 OVC005 04/04 Q1023
  • 111930Z AUTO 10005KT 8000 OVC005 04/04 Q1023
  • 111900Z AUTO 10007KT 9000 OVC005 05/04 Q1023
  • 111830Z AUTO 12005KT 060V160 9000 OVC005 05/04 Q1023
  • 111800Z AUTO 12004KT 7000 OVC005 05/05 Q1023 TEMPO 0800 FG VV///

TAF AMD TAF LFJR
Valid from the 11 at 17:00 until the 12 at 00:00 UTC


111740Z 1117/1124 15003KT 6000 BKN003
TEMPO 1117/1124 0800 FG VV///
No reported NOTAMs for that airfield.



MET'MAP, your aeronautical weather chart ! - Copyright ORBIFLY December 2007 - Disclaimer

ORBIFLY MET'MAP TEAM :

Programming & Development : Alexandra Zaïnal
Concept & Development : Baudouin d'Aumeries
Co-Development & Prog : Marc-Olivier Méhu
Technical & hardware support : Manuel Goepfert

Contact : metmap@orbifly.com




SOURCES & CREDITS :

   NOAA